sensor_id;sensor_type;location;lat;lon;timestamp;pressure;altitude;pressure_sealevel;temperature;humidity
65329;BME280;51941;52.210;5.158;2023-12-14T00:00:07;101002.31;;;4.95;80.79
65329;BME280;51941;52.210;5.158;2023-12-14T00:02:34;101002.16;;;4.92;80.84
65329;BME280;51941;52.210;5.158;2023-12-14T00:05:03;100999.47;;;5.01;80.99
65329;BME280;51941;52.210;5.158;2023-12-14T00:07:29;100996.47;;;5.02;80.62
65329;BME280;51941;52.210;5.158;2023-12-14T00:09:56;101007.03;;;4.90;81.12
65329;BME280;51941;52.210;5.158;2023-12-14T00:12:23;101009.38;;;5.00;81.09
65329;BME280;51941;52.210;5.158;2023-12-14T00:14:49;101024.56;;;5.00;80.95
65329;BME280;51941;52.210;5.158;2023-12-14T00:17:16;101030.09;;;4.94;81.38
65329;BME280;51941;52.210;5.158;2023-12-14T00:19:43;101022.56;;;4.97;81.15
65329;BME280;51941;52.210;5.158;2023-12-14T00:22:11;101026.16;;;5.01;80.75
65329;BME280;51941;52.210;5.158;2023-12-14T00:24:37;101024.81;;;4.86;81.83
65329;BME280;51941;52.210;5.158;2023-12-14T00:27:04;101041.25;;;4.97;81.06
65329;BME280;51941;52.210;5.158;2023-12-14T00:29:31;101047.06;;;4.99;81.42
65329;BME280;51941;52.210;5.158;2023-12-14T00:31:58;101052.63;;;4.85;82.42
65329;BME280;51941;52.210;5.158;2023-12-14T00:34:24;101050.09;;;4.88;81.82
65329;BME280;51941;52.210;5.158;2023-12-14T00:36:51;101057.50;;;4.83;81.73
65329;BME280;51941;52.210;5.158;2023-12-14T00:39:19;101062.16;;;4.86;82.06
65329;BME280;51941;52.210;5.158;2023-12-14T00:41:46;101060.31;;;4.86;82.03
65329;BME280;51941;52.210;5.158;2023-12-14T00:44:13;101067.66;;;4.89;81.98
65329;BME280;51941;52.210;5.158;2023-12-14T00:46:39;101080.81;;;4.94;81.61
65329;BME280;51941;52.210;5.158;2023-12-14T00:49:06;101091.38;;;4.82;81.97
65329;BME280;51941;52.210;5.158;2023-12-14T00:51:33;101090.84;;;4.98;81.45
65329;BME280;51941;52.210;5.158;2023-12-14T00:54:00;101099.03;;;4.92;81.78
65329;BME280;51941;52.210;5.158;2023-12-14T00:56:28;101088.50;;;4.96;81.70
65329;BME280;51941;52.210;5.158;2023-12-14T00:58:54;101101.38;;;4.94;81.36
65329;BME280;51941;52.210;5.158;2023-12-14T01:01:21;101109.75;;;4.84;81.44
65329;BME280;51941;52.210;5.158;2023-12-14T01:03:48;101105.16;;;4.93;81.42
65329;BME280;51941;52.210;5.158;2023-12-14T01:06:14;101115.50;;;4.94;81.14
65329;BME280;51941;52.210;5.158;2023-12-14T01:08:41;101117.59;;;4.89;81.34
65329;BME280;51941;52.210;5.158;2023-12-14T01:11:08;101121.47;;;4.91;81.25
65329;BME280;51941;52.210;5.158;2023-12-14T01:13:36;101118.78;;;4.70;82.26
65329;BME280;51941;52.210;5.158;2023-12-14T01:16:03;101125.63;;;4.80;81.35
65329;BME280;51941;52.210;5.158;2023-12-14T01:18:30;101122.31;;;4.83;81.42
65329;BME280;51941;52.210;5.158;2023-12-14T01:20:57;101127.97;;;4.82;81.31
65329;BME280;51941;52.210;5.158;2023-12-14T01:23:22;101125.13;;;4.87;81.61
65329;BME280;51941;52.210;5.158;2023-12-14T01:25:49;101142.19;;;4.94;81.24
65329;BME280;51941;52.210;5.158;2023-12-14T01:28:16;101145.03;;;4.89;81.28
65329;BME280;51941;52.210;5.158;2023-12-14T01:30:44;101144.59;;;4.87;81.48
65329;BME280;51941;52.210;5.158;2023-12-14T01:33:10;101150.06;;;4.91;81.29
65329;BME280;51941;52.210;5.158;2023-12-14T01:35:37;101148.84;;;4.88;81.24
65329;BME280;51941;52.210;5.158;2023-12-14T01:38:04;101151.63;;;4.92;80.87
65329;BME280;51941;52.210;5.158;2023-12-14T01:40:31;101163.09;;;4.92;81.32
65329;BME280;51941;52.210;5.158;2023-12-14T01:43:06;101170.47;;;4.95;80.90
65329;BME280;51941;52.210;5.158;2023-12-14T01:45:34;101170.94;;;4.98;80.76
65329;BME280;51941;52.210;5.158;2023-12-14T01:48:02;101178.94;;;4.98;80.77
65329;BME280;51941;52.210;5.158;2023-12-14T01:50:29;101185.41;;;4.88;81.10
65329;BME280;51941;52.210;5.158;2023-12-14T01:52:56;101192.13;;;4.94;80.81
65329;BME280;51941;52.210;5.158;2023-12-14T01:55:22;101192.47;;;4.92;80.84
65329;BME280;51941;52.210;5.158;2023-12-14T01:57:51;101203.91;;;4.93;80.77
65329;BME280;51941;52.210;5.158;2023-12-14T02:00:22;101200.47;;;4.92;80.58
65329;BME280;51941;52.210;5.158;2023-12-14T02:02:52;101202.31;;;4.92;80.78
65329;BME280;51941;52.210;5.158;2023-12-14T02:05:21;101207.13;;;4.78;81.72
65329;BME280;51941;52.210;5.158;2023-12-14T02:07:48;101209.63;;;4.83;81.58
65329;BME280;51941;52.210;5.158;2023-12-14T02:10:15;101215.41;;;4.85;81.57
65329;BME280;51941;52.210;5.158;2023-12-14T02:12:42;101226.44;;;4.74;82.29
65329;BME280;51941;52.210;5.158;2023-12-14T02:15:09;101231.44;;;4.76;82.13
65329;BME280;51941;52.210;5.158;2023-12-14T02:17:36;101235.41;;;4.70;82.23
65329;BME280;51941;52.210;5.158;2023-12-14T02:20:04;101243.03;;;4.80;81.69
65329;BME280;51941;52.210;5.158;2023-12-14T02:22:35;101245.00;;;4.62;82.71
65329;BME280;51941;52.210;5.158;2023-12-14T02:25:02;101258.13;;;4.76;81.98
65329;BME280;51941;52.210;5.158;2023-12-14T02:27:29;101261.13;;;4.74;82.10
65329;BME280;51941;52.210;5.158;2023-12-14T02:29:56;101257.03;;;4.77;81.88
65329;BME280;51941;52.210;5.158;2023-12-14T02:32:22;101267.09;;;4.71;81.78
65329;BME280;51941;52.210;5.158;2023-12-14T02:34:49;101266.13;;;4.76;82.03
65329;BME280;51941;52.210;5.158;2023-12-14T02:37:16;101261.88;;;4.84;81.54
65329;BME280;51941;52.210;5.158;2023-12-14T02:39:44;101276.66;;;4.72;81.71
65329;BME280;51941;52.210;5.158;2023-12-14T02:42:12;101286.56;;;4.72;82.00
65329;BME280;51941;52.210;5.158;2023-12-14T02:44:39;101278.06;;;4.79;81.63
65329;BME280;51941;52.210;5.158;2023-12-14T02:47:05;101283.41;;;4.79;81.30
65329;BME280;51941;52.210;5.158;2023-12-14T02:49:32;101284.53;;;4.69;81.51
65329;BME280;51941;52.210;5.158;2023-12-14T02:51:59;101296.13;;;4.73;81.41
65329;BME280;51941;52.210;5.158;2023-12-14T02:54:26;101296.94;;;4.65;81.32
65329;BME280;51941;52.210;5.158;2023-12-14T02:56:54;101305.44;;;4.49;81.80
65329;BME280;51941;52.210;5.158;2023-12-14T02:59:21;101300.56;;;4.60;81.79
65329;BME280;51941;52.210;5.158;2023-12-14T03:01:47;101311.88;;;4.48;81.63
65329;BME280;51941;52.210;5.158;2023-12-14T03:04:14;101308.88;;;4.67;80.97
65329;BME280;51941;52.210;5.158;2023-12-14T03:06:40;101312.16;;;4.64;80.99
65329;BME280;51941;52.210;5.158;2023-12-14T03:09:07;101317.34;;;4.61;81.00
65329;BME280;51941;52.210;5.158;2023-12-14T03:11:34;101313.88;;;4.69;81.01
65329;BME280;51941;52.210;5.158;2023-12-14T03:14:02;101314.97;;;4.68;80.63
65329;BME280;51941;52.210;5.158;2023-12-14T03:16:29;101316.22;;;4.70;80.77
65329;BME280;51941;52.210;5.158;2023-12-14T03:18:55;101316.59;;;4.51;80.92
65329;BME280;51941;52.210;5.158;2023-12-14T03:21:22;101314.81;;;4.64;80.50
65329;BME280;51941;52.210;5.158;2023-12-14T03:23:49;101318.09;;;4.70;80.44
65329;BME280;51941;52.210;5.158;2023-12-14T03:26:16;101320.00;;;4.61;80.87
65329;BME280;51941;52.210;5.158;2023-12-14T03:28:43;101314.66;;;4.69;80.45
65329;BME280;51941;52.210;5.158;2023-12-14T03:31:11;101309.94;;;4.66;80.02
65329;BME280;51941;52.210;5.158;2023-12-14T03:33:38;101309.31;;;4.69;80.17
65329;BME280;51941;52.210;5.158;2023-12-14T03:36:05;101312.97;;;4.65;80.07
65329;BME280;51941;52.210;5.158;2023-12-14T03:38:33;101309.19;;;4.57;80.55
65329;BME280;51941;52.210;5.158;2023-12-14T03:40:59;101319.41;;;4.46;80.69
65329;BME280;51941;52.210;5.158;2023-12-14T03:43:26;101315.00;;;4.33;81.15
65329;BME280;51941;52.210;5.158;2023-12-14T03:45:53;101323.16;;;4.54;80.57
65329;BME280;51941;52.210;5.158;2023-12-14T03:48:21;101328.00;;;4.61;80.48
65329;BME280;51941;52.210;5.158;2023-12-14T03:50:48;101330.84;;;4.55;80.67
65329;BME280;51941;52.210;5.158;2023-12-14T03:53:14;101331.66;;;4.47;80.82
65329;BME280;51941;52.210;5.158;2023-12-14T03:55:41;101339.78;;;4.60;80.18
65329;BME280;51941;52.210;5.158;2023-12-14T03:58:07;101338.53;;;4.48;80.21
65329;BME280;51941;52.210;5.158;2023-12-14T04:00:34;101337.91;;;4.60;80.51
65329;BME280;51941;52.210;5.158;2023-12-14T04:03:01;101337.59;;;4.62;79.77
65329;BME280;51941;52.210;5.158;2023-12-14T04:05:29;101347.00;;;4.50;80.20
65329;BME280;51941;52.210;5.158;2023-12-14T04:07:56;101355.78;;;4.60;79.88
65329;BME280;51941;52.210;5.158;2023-12-14T04:10:22;101349.38;;;4.43;80.18
65329;BME280;51941;52.210;5.158;2023-12-14T04:12:49;101356.28;;;4.27;80.57
65329;BME280;51941;52.210;5.158;2023-12-14T04:15:15;101366.31;;;4.39;80.04
65329;BME280;51941;52.210;5.158;2023-12-14T04:17:42;101375.44;;;4.38;79.75
65329;BME280;51941;52.210;5.158;2023-12-14T04:20:10;101381.88;;;4.45;79.64
65329;BME280;51941;52.210;5.158;2023-12-14T04:22:38;101387.66;;;4.47;79.59
65329;BME280;51941;52.210;5.158;2023-12-14T04:25:05;101390.00;;;4.40;79.36
65329;BME280;51941;52.210;5.158;2023-12-14T04:27:33;101388.44;;;4.30;79.58
65329;BME280;51941;52.210;5.158;2023-12-14T04:29:59;101392.06;;;4.43;79.10
65329;BME280;51941;52.210;5.158;2023-12-14T04:32:26;101394.72;;;4.52;79.02
65329;BME280;51941;52.210;5.158;2023-12-14T04:34:53;101393.31;;;4.46;79.03
65329;BME280;51941;52.210;5.158;2023-12-14T04:37:20;101398.94;;;4.44;78.78
65329;BME280;51941;52.210;5.158;2023-12-14T04:39:48;101405.53;;;4.47;78.51
65329;BME280;51941;52.210;5.158;2023-12-14T04:42:16;101422.78;;;4.32;78.39
65329;BME280;51941;52.210;5.158;2023-12-14T04:44:43;101419.69;;;4.47;78.40
65329;BME280;51941;52.210;5.158;2023-12-14T04:47:10;101423.59;;;4.50;78.23
65329;BME280;51941;52.210;5.158;2023-12-14T04:49:36;101435.34;;;4.31;78.83
65329;BME280;51941;52.210;5.158;2023-12-14T04:52:03;101428.59;;;4.34;78.19
65329;BME280;51941;52.210;5.158;2023-12-14T04:54:30;101434.56;;;4.40;78.71
65329;BME280;51941;52.210;5.158;2023-12-14T04:56:58;101443.50;;;4.44;78.17
65329;BME280;51941;52.210;5.158;2023-12-14T04:59:25;101452.94;;;4.41;78.12
65329;BME280;51941;52.210;5.158;2023-12-14T05:01:52;101466.25;;;4.50;77.74
65329;BME280;51941;52.210;5.158;2023-12-14T05:04:19;101470.16;;;4.35;78.40
65329;BME280;51941;52.210;5.158;2023-12-14T05:06:45;101476.25;;;4.27;78.11
65329;BME280;51941;52.210;5.158;2023-12-14T05:09:12;101476.59;;;4.34;78.07
65329;BME280;51941;52.210;5.158;2023-12-14T05:11:39;101481.59;;;4.27;77.88
65329;BME280;51941;52.210;5.158;2023-12-14T05:14:07;101485.41;;;4.43;77.77
65329;BME280;51941;52.210;5.158;2023-12-14T05:16:34;101491.34;;;4.31;77.64
65329;BME280;51941;52.210;5.158;2023-12-14T05:19:01;101499.81;;;4.33;77.60
65329;BME280;51941;52.210;5.158;2023-12-14T05:21:28;101502.94;;;4.27;77.56
65329;BME280;51941;52.210;5.158;2023-12-14T05:23:54;101512.03;;;4.34;77.57
65329;BME280;51941;52.210;5.158;2023-12-14T05:26:21;101511.88;;;4.31;77.74
65329;BME280;51941;52.210;5.158;2023-12-14T05:28:48;101522.53;;;4.22;77.83
65329;BME280;51941;52.210;5.158;2023-12-14T05:31:16;101521.75;;;4.30;77.47
65329;BME280;51941;52.210;5.158;2023-12-14T05:33:43;101520.03;;;4.34;77.30
65329;BME280;51941;52.210;5.158;2023-12-14T05:36:10;101523.34;;;4.31;77.43
65329;BME280;51941;52.210;5.158;2023-12-14T05:38:38;101526.16;;;4.35;76.97
65329;BME280;51941;52.210;5.158;2023-12-14T05:41:05;101528.34;;;4.24;77.01
65329;BME280;51941;52.210;5.158;2023-12-14T05:43:31;101536.47;;;4.19;76.97
65329;BME280;51941;52.210;5.158;2023-12-14T05:45:58;101537.22;;;4.11;77.43
65329;BME280;51941;52.210;5.158;2023-12-14T05:48:26;101545.94;;;4.25;77.37
65329;BME280;51941;52.210;5.158;2023-12-14T05:50:54;101551.41;;;4.29;76.82
65329;BME280;51941;52.210;5.158;2023-12-14T05:53:20;101557.22;;;4.31;77.05
65329;BME280;51941;52.210;5.158;2023-12-14T05:55:47;101562.06;;;4.29;77.00
65329;BME280;51941;52.210;5.158;2023-12-14T05:58:14;101557.66;;;4.15;77.79
65329;BME280;51941;52.210;5.158;2023-12-14T06:00:41;101563.75;;;4.16;77.56
65329;BME280;51941;52.210;5.158;2023-12-14T06:03:07;101561.28;;;4.20;77.48
65329;BME280;51941;52.210;5.158;2023-12-14T06:05:35;101566.44;;;4.16;77.03
65329;BME280;51941;52.210;5.158;2023-12-14T06:08:02;101569.09;;;4.16;76.11
65329;BME280;51941;52.210;5.158;2023-12-14T06:10:29;101576.25;;;4.07;77.03
65329;BME280;51941;52.210;5.158;2023-12-14T06:12:56;101580.50;;;4.08;76.84
65329;BME280;51941;52.210;5.158;2023-12-14T06:15:22;101575.19;;;4.16;76.67
65329;BME280;51941;52.210;5.158;2023-12-14T06:17:49;101583.19;;;4.16;76.91
65329;BME280;51941;52.210;5.158;2023-12-14T06:20:16;101589.66;;;4.24;76.53
65329;BME280;51941;52.210;5.158;2023-12-14T06:22:44;101598.63;;;4.28;76.22
65329;BME280;51941;52.210;5.158;2023-12-14T06:25:10;101594.91;;;4.07;77.03
65329;BME280;51941;52.210;5.158;2023-12-14T06:27:37;101608.44;;;4.10;77.28
65329;BME280;51941;52.210;5.158;2023-12-14T06:30:04;101605.28;;;4.08;77.18
65329;BME280;51941;52.210;5.158;2023-12-14T06:32:31;101619.38;;;4.09;76.68
65329;BME280;51941;52.210;5.158;2023-12-14T06:34:58;101621.00;;;4.19;76.45
65329;BME280;51941;52.210;5.158;2023-12-14T06:37:24;101621.78;;;4.19;76.28
65329;BME280;51941;52.210;5.158;2023-12-14T06:39:52;101618.97;;;4.15;76.48
65329;BME280;51941;52.210;5.158;2023-12-14T06:42:19;101624.59;;;4.14;76.21
65329;BME280;51941;52.210;5.158;2023-12-14T06:44:46;101633.97;;;3.80;76.75
65329;BME280;51941;52.210;5.158;2023-12-14T06:47:13;101647.88;;;4.00;75.91
65329;BME280;51941;52.210;5.158;2023-12-14T06:49:39;101648.72;;;4.09;75.65
65329;BME280;51941;52.210;5.158;2023-12-14T06:52:09;101667.03;;;4.02;75.43
65329;BME280;51941;52.210;5.158;2023-12-14T06:54:36;101674.03;;;3.97;75.52
65329;BME280;51941;52.210;5.158;2023-12-14T06:57:04;101678.28;;;3.99;75.06
65329;BME280;51941;52.210;5.158;2023-12-14T06:59:31;101684.88;;;4.01;75.51
65329;BME280;51941;52.210;5.158;2023-12-14T07:01:58;101679.44;;;4.06;74.58
65329;BME280;51941;52.210;5.158;2023-12-14T07:04:24;101674.09;;;4.06;74.93
65329;BME280;51941;52.210;5.158;2023-12-14T07:06:53;101674.47;;;4.13;74.47
65329;BME280;51941;52.210;5.158;2023-12-14T07:09:19;101685.56;;;4.07;74.34
65329;BME280;51941;52.210;5.158;2023-12-14T07:11:46;101682.59;;;4.08;74.38
65329;BME280;51941;52.210;5.158;2023-12-14T07:14:14;101697.47;;;4.09;74.57
65329;BME280;51941;52.210;5.158;2023-12-14T07:16:41;101696.69;;;4.09;74.02
65329;BME280;51941;52.210;5.158;2023-12-14T07:19:08;101695.91;;;4.08;74.55
65329;BME280;51941;52.210;5.158;2023-12-14T07:21:36;101700.47;;;4.08;74.09
65329;BME280;51941;52.210;5.158;2023-12-14T07:24:01;101707.34;;;4.09;74.23
65329;BME280;51941;52.210;5.158;2023-12-14T07:26:28;101705.44;;;4.01;75.02
65329;BME280;51941;52.210;5.158;2023-12-14T07:28:55;101707.53;;;4.12;74.64
65329;BME280;51941;52.210;5.158;2023-12-14T07:31:23;101709.91;;;4.14;74.21
65329;BME280;51941;52.210;5.158;2023-12-14T07:33:50;101714.31;;;4.19;73.93
65329;BME280;51941;52.210;5.158;2023-12-14T07:36:17;101709.13;;;4.13;74.12
65329;BME280;51941;52.210;5.158;2023-12-14T07:38:43;101715.09;;;4.19;73.96
65329;BME280;51941;52.210;5.158;2023-12-14T07:41:10;101720.31;;;4.24;74.12
65329;BME280;51941;52.210;5.158;2023-12-14T07:43:37;101722.06;;;4.29;74.09
65329;BME280;51941;52.210;5.158;2023-12-14T07:46:04;101720.69;;;4.31;74.13
65329;BME280;51941;52.210;5.158;2023-12-14T07:48:33;101723.84;;;4.33;74.38
65329;BME280;51941;52.210;5.158;2023-12-14T07:50:59;101733.09;;;4.36;73.87
65329;BME280;51941;52.210;5.158;2023-12-14T07:53:26;101746.72;;;4.34;73.76
65329;BME280;51941;52.210;5.158;2023-12-14T07:55:53;101741.88;;;4.36;73.66
65329;BME280;51941;52.210;5.158;2023-12-14T07:58:19;101752.22;;;4.29;74.03
65329;BME280;51941;52.210;5.158;2023-12-14T08:00:48;101745.50;;;4.41;73.70
65329;BME280;51941;52.210;5.158;2023-12-14T08:03:14;101749.66;;;4.24;74.36
65329;BME280;51941;52.210;5.158;2023-12-14T08:05:42;101749.75;;;4.19;74.57
65329;BME280;51941;52.210;5.158;2023-12-14T08:08:09;101760.81;;;4.26;74.91
65329;BME280;51941;52.210;5.158;2023-12-14T08:10:36;101763.50;;;4.35;74.47
65329;BME280;51941;52.210;5.158;2023-12-14T08:13:02;101761.22;;;4.42;74.09
65329;BME280;51941;52.210;5.158;2023-12-14T08:15:29;101766.25;;;4.44;74.00
65329;BME280;51941;52.210;5.158;2023-12-14T08:17:56;101763.50;;;4.35;73.81
65329;BME280;51941;52.210;5.158;2023-12-14T08:20:23;101761.41;;;4.46;73.89
65329;BME280;51941;52.210;5.158;2023-12-14T08:22:51;101758.09;;;4.49;73.53
65329;BME280;51941;52.210;5.158;2023-12-14T08:25:18;101763.63;;;4.52;73.13
65329;BME280;51941;52.210;5.158;2023-12-14T08:27:44;101772.81;;;4.38;73.29
65329;BME280;51941;52.210;5.158;2023-12-14T08:30:12;101779.56;;;4.21;73.61
65329;BME280;51941;52.210;5.158;2023-12-14T08:32:39;101783.47;;;4.38;73.44
65329;BME280;51941;52.210;5.158;2023-12-14T08:35:06;101776.78;;;4.49;73.65
65329;BME280;51941;52.210;5.158;2023-12-14T08:37:35;101791.03;;;4.44;73.31
65329;BME280;51941;52.210;5.158;2023-12-14T08:40:05;101798.94;;;4.49;73.02
65329;BME280;51941;52.210;5.158;2023-12-14T08:42:32;101804.59;;;4.56;73.34
65329;BME280;51941;52.210;5.158;2023-12-14T08:45:00;101815.84;;;4.67;73.68
65329;BME280;51941;52.210;5.158;2023-12-14T08:47:27;101819.94;;;4.73;73.63
65329;BME280;51941;52.210;5.158;2023-12-14T08:49:54;101822.72;;;4.68;73.42
65329;BME280;51941;52.210;5.158;2023-12-14T08:52:20;101828.41;;;4.67;73.13
65329;BME280;51941;52.210;5.158;2023-12-14T08:54:47;101821.66;;;4.69;72.94
65329;BME280;51941;52.210;5.158;2023-12-14T08:57:15;101824.53;;;4.82;72.63
65329;BME280;51941;52.210;5.158;2023-12-14T08:59:42;101826.31;;;4.86;72.60
65329;BME280;51941;52.210;5.158;2023-12-14T09:02:09;101825.50;;;4.86;72.32
65329;BME280;51941;52.210;5.158;2023-12-14T09:04:35;101826.94;;;4.92;72.29
65329;BME280;51941;52.210;5.158;2023-12-14T09:07:02;101830.59;;;4.96;71.72
65329;BME280;51941;52.210;5.158;2023-12-14T09:09:30;101843.88;;;4.87;71.93
65329;BME280;51941;52.210;5.158;2023-12-14T09:11:57;101839.91;;;4.99;71.88
65329;BME280;51941;52.210;5.158;2023-12-14T09:14:25;101848.69;;;4.99;70.94
65329;BME280;51941;52.210;5.158;2023-12-14T09:16:52;101851.91;;;5.10;71.26
65329;BME280;51941;52.210;5.158;2023-12-14T09:19:19;101848.56;;;5.04;70.61
65329;BME280;51941;52.210;5.158;2023-12-14T09:21:46;101852.22;;;5.08;71.00
65329;BME280;51941;52.210;5.158;2023-12-14T09:24:12;101859.75;;;5.06;70.27
65329;BME280;51941;52.210;5.158;2023-12-14T09:26:39;101866.47;;;5.04;70.50
65329;BME280;51941;52.210;5.158;2023-12-14T09:29:06;101873.25;;;5.10;70.22
65329;BME280;51941;52.210;5.158;2023-12-14T09:31:34;101871.97;;;5.07;70.18
65329;BME280;51941;52.210;5.158;2023-12-14T09:34:01;101876.66;;;5.02;70.21
65329;BME280;51941;52.210;5.158;2023-12-14T09:36:28;101883.09;;;5.01;71.30
65329;BME280;51941;52.210;5.158;2023-12-14T09:38:55;101884.44;;;5.12;70.82
65329;BME280;51941;52.210;5.158;2023-12-14T09:41:21;101886.78;;;5.13;69.75
65329;BME280;51941;52.210;5.158;2023-12-14T09:43:48;101902.06;;;5.22;70.25
65329;BME280;51941;52.210;5.158;2023-12-14T09:46:17;101894.56;;;5.32;69.98
65329;BME280;51941;52.210;5.158;2023-12-14T09:48:46;101899.63;;;5.34;69.51
65329;BME280;51941;52.210;5.158;2023-12-14T09:51:12;101902.97;;;5.48;69.86
65329;BME280;51941;52.210;5.158;2023-12-14T09:53:39;101905.19;;;5.55;69.13
65329;BME280;51941;52.210;5.158;2023-12-14T09:56:05;101908.97;;;5.54;68.69
65329;BME280;51941;52.210;5.158;2023-12-14T09:58:32;101914.81;;;5.65;68.73
65329;BME280;51941;52.210;5.158;2023-12-14T10:00:59;101925.03;;;5.31;67.87
65329;BME280;51941;52.210;5.158;2023-12-14T10:03:27;101922.03;;;5.56;68.18
65329;BME280;51941;52.210;5.158;2023-12-14T10:05:56;101914.63;;;5.52;66.87
65329;BME280;51941;52.210;5.158;2023-12-14T10:08:24;101929.59;;;5.62;68.35
65329;BME280;51941;52.210;5.158;2023-12-14T10:10:53;101930.53;;;5.66;68.43
65329;BME280;51941;52.210;5.158;2023-12-14T10:13:22;101935.47;;;5.73;68.86
65329;BME280;51941;52.210;5.158;2023-12-14T10:16:01;101938.75;;;5.70;67.89
65329;BME280;51941;52.210;5.158;2023-12-14T10:18:28;101944.56;;;5.72;68.09
65329;BME280;51941;52.210;5.158;2023-12-14T10:20:56;101939.69;;;5.74;66.88
65329;BME280;51941;52.210;5.158;2023-12-14T10:23:23;101939.75;;;5.83;68.38
65329;BME280;51941;52.210;5.158;2023-12-14T10:25:49;101940.53;;;5.83;68.15
65329;BME280;51941;52.210;5.158;2023-12-14T10:28:16;101938.75;;;5.79;67.53
65329;BME280;51941;52.210;5.158;2023-12-14T10:30:43;101938.75;;;5.79;68.33
65329;BME280;51941;52.210;5.158;2023-12-14T10:33:10;101940.69;;;5.87;68.74
65329;BME280;51941;52.210;5.158;2023-12-14T10:35:37;101955.63;;;5.88;67.99
65329;BME280;51941;52.210;5.158;2023-12-14T10:38:05;101946.94;;;5.82;68.06
65329;BME280;51941;52.210;5.158;2023-12-14T10:40:35;101951.69;;;5.85;67.94
65329;BME280;51941;52.210;5.158;2023-12-14T10:43:06;101956.41;;;5.88;67.29
65329;BME280;51941;52.210;5.158;2023-12-14T10:45:33;101967.28;;;5.92;68.62
65329;BME280;51941;52.210;5.158;2023-12-14T10:48:00;101969.81;;;5.97;68.87
65329;BME280;51941;52.210;5.158;2023-12-14T10:50:29;101972.19;;;5.99;67.27
65329;BME280;51941;52.210;5.158;2023-12-14T10:52:57;101965.25;;;5.98;68.63
65329;BME280;51941;52.210;5.158;2023-12-14T10:55:29;101964.47;;;5.97;68.21
65329;BME280;51941;52.210;5.158;2023-12-14T10:57:58;101970.31;;;5.99;68.48
65329;BME280;51941;52.210;5.158;2023-12-14T11:00:24;101972.44;;;5.88;68.95
65329;BME280;51941;52.210;5.158;2023-12-14T11:02:51;101960.03;;;5.84;68.65
65329;BME280;51941;52.210;5.158;2023-12-14T11:05:18;101963.03;;;5.91;68.52
65329;BME280;51941;52.210;5.158;2023-12-14T11:07:55;101974.34;;;5.88;67.62
65329;BME280;51941;52.210;5.158;2023-12-14T11:10:28;101970.69;;;5.75;68.62
65329;BME280;51941;52.210;5.158;2023-12-14T11:13:03;101969.00;;;5.88;69.22
65329;BME280;51941;52.210;5.158;2023-12-14T11:15:34;101973.75;;;5.91;67.77
65329;BME280;51941;52.210;5.158;2023-12-14T11:18:20;101975.66;;;5.99;68.46
65329;BME280;51941;52.210;5.158;2023-12-14T11:20:50;101972.34;;;6.02;68.21
65329;BME280;51941;52.210;5.158;2023-12-14T11:23:25;101982.28;;;6.10;68.92
65329;BME280;51941;52.210;5.158;2023-12-14T11:25:58;101974.88;;;6.16;69.07
65329;BME280;51941;52.210;5.158;2023-12-14T11:28:25;101978.84;;;6.19;69.03
65329;BME280;51941;52.210;5.158;2023-12-14T11:30:52;101982.44;;;6.05;68.27
65329;BME280;51941;52.210;5.158;2023-12-14T11:33:18;101982.91;;;6.07;69.08
65329;BME280;51941;52.210;5.158;2023-12-14T11:35:45;101985.41;;;6.04;68.41
65329;BME280;51941;52.210;5.158;2023-12-14T11:38:12;101979.59;;;6.02;67.34
65329;BME280;51941;52.210;5.158;2023-12-14T11:40:39;101980.41;;;6.11;69.04
65329;BME280;51941;52.210;5.158;2023-12-14T11:43:07;101992.22;;;6.19;69.33
65329;BME280;51941;52.210;5.158;2023-12-14T11:45:35;102002.28;;;6.13;69.48
65329;BME280;51941;52.210;5.158;2023-12-14T11:48:02;101994.75;;;6.24;69.31
65329;BME280;51941;52.210;5.158;2023-12-14T11:50:31;102005.91;;;6.26;68.71
65329;BME280;51941;52.210;5.158;2023-12-14T11:52:59;102008.59;;;6.26;67.65
65329;BME280;51941;52.210;5.158;2023-12-14T11:55:26;102002.94;;;6.19;69.00
65329;BME280;51941;52.210;5.158;2023-12-14T11:57:53;102004.53;;;6.28;69.55
65329;BME280;51941;52.210;5.158;2023-12-14T12:00:25;102015.09;;;6.42;69.52
65329;BME280;51941;52.210;5.158;2023-12-14T12:02:52;102015.59;;;6.53;68.61
65329;BME280;51941;52.210;5.158;2023-12-14T12:05:36;102020.47;;;6.51;68.39
65329;BME280;51941;52.210;5.158;2023-12-14T12:08:04;102020.31;;;6.56;68.61
65329;BME280;51941;52.210;5.158;2023-12-14T12:10:31;102016.69;;;6.52;68.51
65329;BME280;51941;52.210;5.158;2023-12-14T12:13:02;102024.41;;;6.53;69.06
65329;BME280;51941;52.210;5.158;2023-12-14T12:15:31;102023.63;;;6.53;67.91
65329;BME280;51941;52.210;5.158;2023-12-14T12:18:02;102025.66;;;6.47;68.85
65329;BME280;51941;52.210;5.158;2023-12-14T12:20:29;102022.53;;;6.54;68.66
65329;BME280;51941;52.210;5.158;2023-12-14T12:22:55;102025.66;;;6.47;68.61
65329;BME280;51941;52.210;5.158;2023-12-14T12:25:22;102022.66;;;6.49;68.81
65329;BME280;51941;52.210;5.158;2023-12-14T12:27:49;102017.94;;;6.54;69.17
65329;BME280;51941;52.210;5.158;2023-12-14T12:30:15;102023.63;;;6.53;68.99
65329;BME280;51941;52.210;5.158;2023-12-14T12:32:44;102036.06;;;6.58;68.96
65329;BME280;51941;52.210;5.158;2023-12-14T12:35:10;102022.34;;;6.59;68.66
65329;BME280;51941;52.210;5.158;2023-12-14T12:37:36;102029.59;;;6.59;68.61
65329;BME280;51941;52.210;5.158;2023-12-14T12:40:04;102029.13;;;6.57;68.92
65329;BME280;51941;52.210;5.158;2023-12-14T12:42:30;102024.72;;;6.52;68.84
65329;BME280;51941;52.210;5.158;2023-12-14T12:44:57;102029.91;;;6.48;68.97
65329;BME280;51941;52.210;5.158;2023-12-14T12:47:24;102014.94;;;6.47;68.97
65329;BME280;51941;52.210;5.158;2023-12-14T12:49:52;102022.53;;;6.54;69.37
65329;BME280;51941;52.210;5.158;2023-12-14T12:52:19;102023.31;;;6.54;69.41
65329;BME280;51941;52.210;5.158;2023-12-14T12:54:46;102021.88;;;6.57;69.05
65329;BME280;51941;52.210;5.158;2023-12-14T12:57:13;102020.97;;;6.62;68.73
65329;BME280;51941;52.210;5.158;2023-12-14T12:59:39;102025.97;;;6.63;69.45